Terminal Aerodrome Forecast
Issued by NWS

Home | Current Version | Previous Version | Text Only | Print | Product List | Glossary On
Versions: 1 2 3 4 5 6 7 8 9 10 11 12 13 14 15 16
000
FTUS45 KGJT 301726
TAFTEX
TAF
KTEX 301726Z 3018/3118 27005KT P6SM FEW110 SCT150
     FM302000 27010KT P6SM VCTS SCT090CB BKN150
     FM310100 24010KT P6SM VCSH BKN150
     FM310400 15005KT P6SM BKN150
     FM311500 12004KT P6SM BKN150=

USA.gov is the U.S. government's official web portal to all federal, state and local government web resources and services.